Time;durP1;ratioP1;P1;durP2;ratioP2;P2;SDS_P1;SDS_P2;PMS_P1;PMS_P2;Temp;Humidity;BMP_temperature;BMP_pressure;BME280_temperature;BME280_humidity;BME280_pressure;Samples;Min_cycle;Max_cycle;Signal;HPM_P1;HPM_P2
2022/01/11 00:03:30;;;;;;;30.00;18.38;;;;;;;1.78;73.61;98935.19;12739062;23;20455;-77
2022/01/11 00:08:54;;;;;;;29.95;18.90;;;;;;;1.84;73.59;98935.94;12757662;23;20021;-77
2022/01/11 00:14:19;;;;;;;28.13;17.52;;;;;;;1.91;73.69;98946.41;12781090;23;20021;-77
2022/01/11 00:19:40;;;;;;;30.77;18.33;;;;;;;1.92;73.20;98947.88;12738683;23;20434;-77
2022/01/11 00:25:02;;;;;;;29.40;18.10;;;;;;;1.96;73.08;98947.63;12780238;23;20092;-77
2022/01/11 00:30:29;;;;;;;35.53;18.27;;;;;;;1.87;73.55;98939.66;12759001;23;20045;-77
2022/01/11 00:36:12;;;;;;;33.30;19.52;;;;;;;1.86;73.53;98955.44;12761503;23;20037;-77
2022/01/11 00:41:32;;;;;;;29.58;18.38;;;;;;;1.94;73.82;98950.91;12767423;23;20024;-77
2022/01/11 00:46:53;;;;;;;32.20;19.02;;;;;;;1.93;73.66;98956.91;12738406;23;20337;-77
2022/01/11 00:52:14;;;;;;;32.95;18.33;;;;;;;1.96;73.54;98969.66;12759503;23;20036;-77
2022/01/11 00:57:36;;;;;;;33.85;18.83;;;;;;;1.81;73.61;98972.72;12758046;23;20104;-77
2022/01/11 01:02:57;;;;;;;33.78;20.02;;;;;;;1.63;73.27;98981.53;12774396;23;20021;-77
2022/01/11 01:08:18;;;;;;;32.13;18.67;;;;;;;1.56;73.14;98979.31;12738085;23;20340;-77
2022/01/11 01:13:40;;;;;;;30.08;18.88;;;;;;;1.51;73.21;98991.06;12718492;23;20052;-77
2022/01/11 01:19:03;;;;;;;34.47;19.77;;;;;;;1.56;72.98;98993.06;12758222;23;20013;-77
2022/01/11 01:24:26;;;;;;;31.85;19.35;;;;;;;1.66;72.86;99002.56;12758568;23;20305;-77
2022/01/11 01:29:46;;;;;;;34.22;19.75;;;;;;;1.61;73.02;99003.31;12757327;23;20404;-77
2022/01/11 01:35:08;;;;;;;36.22;20.40;;;;;;;1.57;72.09;98997.31;12758110;23;20013;-77
2022/01/11 01:40:36;;;;;;;36.88;21.20;;;;;;;1.41;72.04;99005.09;12737296;23;20075;-77
2022/01/11 01:46:00;;;;;;;38.13;22.02;;;;;;;1.35;72.80;99007.09;12761394;23;20139;-77
2022/01/11 01:51:21;;;;;;;33.28;20.65;;;;;;;1.30;72.64;99007.09;12759280;23;20021;-77
2022/01/11 01:56:43;;;;;;;38.70;22.13;;;;;;;1.26;72.74;99009.38;12757296;23;20017;-77
2022/01/11 02:02:06;;;;;;;39.13;23.95;;;;;;;1.17;72.28;99004.13;12777416;23;20017;-77
2022/01/11 02:07:27;;;;;;;41.87;24.37;;;;;;;1.18;72.54;99013.88;12738651;23;20021;-77
2022/01/11 02:12:48;;;;;;;41.13;24.85;;;;;;;1.20;72.10;99009.34;12760637;23;20024;-77
2022/01/11 02:18:14;;;;;;;39.17;22.58;;;;;;;1.27;72.84;99011.63;12740705;23;20017;-77
2022/01/11 02:23:36;;;;;;;40.85;24.55;;;;;;;1.36;72.55;99019.59;12742611;23;20021;-77
2022/01/11 02:28:57;;;;;;;41.60;22.73;;;;;;;1.44;72.25;99012.31;12761159;23;20394;-77
2022/01/11 02:34:18;;;;;;;40.33;23.50;;;;;;;1.44;72.45;99015.06;12781359;23;20044;-77
2022/01/11 02:39:55;;;;;;;39.58;23.60;;;;;;;1.43;72.50;99019.09;12745985;23;20017;-77
2022/01/11 02:45:21;;;;;;;41.85;24.42;;;;;;;1.39;72.18;99024.09;12762137;23;20013;-77
2022/01/11 02:50:45;;;;;;;42.22;23.83;;;;;;;1.42;72.45;99034.09;12740639;23;20028;-77
2022/01/11 02:56:07;;;;;;;45.72;25.73;;;;;;;1.44;72.29;99025.34;12741445;23;20024;-77
2022/01/11 03:01:29;;;;;;;47.53;25.88;;;;;;;1.41;72.57;99040.09;12760437;23;20013;-77
2022/01/11 03:06:50;;;;;;;42.80;25.25;;;;;;;1.39;72.23;99043.34;12740043;23;20029;-77
2022/01/11 03:12:12;;;;;;;44.22;26.20;;;;;;;1.32;72.25;99046.59;12685554;23;20041;-77
2022/01/11 03:17:33;;;;;;;43.47;26.45;;;;;;;1.39;72.04;99048.88;12658613;23;20021;-77
2022/01/11 03:22:56;;;;;;;42.88;25.25;;;;;;;1.42;72.28;99053.34;12678742;23;20145;-78
2022/01/11 03:28:17;;;;;;;46.47;26.67;;;;;;;1.43;72.05;99063.09;12658695;23;20429;-78
2022/01/11 03:33:38;;;;;;;46.47;27.50;;;;;;;1.43;71.80;99067.88;12677963;23;20337;-77
2022/01/11 03:38:59;;;;;;;51.35;28.90;;;;;;;1.31;71.66;99077.38;12658366;23;20038;-77
2022/01/11 03:44:21;;;;;;;44.38;26.55;;;;;;;1.22;71.04;99083.88;12677909;23;20396;-77
2022/01/11 03:49:44;;;;;;;49.63;29.02;;;;;;;1.12;71.21;99088.84;12677732;23;20018;-77
2022/01/11 03:55:11;;;;;;;48.55;28.33;;;;;;;1.10;71.34;99090.63;12658886;23;20025;-77
2022/01/11 04:00:40;;;;;;;48.47;28.43;;;;;;;1.10;71.75;99085.88;12662489;23;20014;-77
2022/01/11 04:06:00;;;;;;;50.47;29.10;;;;;;;1.07;71.54;99094.38;12640863;23;20516;-77
2022/01/11 04:11:22;;;;;;;49.38;28.95;;;;;;;1.09;72.08;99091.88;12703771;23;20021;-77
2022/01/11 04:16:46;;;;;;;49.50;28.35;;;;;;;1.15;71.43;99098.09;12739830;23;20398;-77
2022/01/11 04:22:07;;;;;;;55.58;30.60;;;;;;;1.04;72.10;99089.84;12778829;23;20021;-78
2022/01/11 04:27:29;;;;;;;54.53;30.98;;;;;;;1.13;71.38;99082.09;12757130;23;20024;-77
2022/01/11 04:32:53;;;;;;;54.67;32.80;;;;;;;1.03;71.39;99093.84;12736787;23;20021;-80
2022/01/11 04:38:18;;;;;;;57.15;33.33;;;;;;;0.96;71.37;99106.06;12736084;23;20104;-77
2022/01/11 04:43:38;;;;;;;;;;;;;;;0.93;71.15;99103.56;12735190;23;20040;-80
2022/01/11 04:49:00;;;;;;;55.83;32.72;;;;;;;0.92;71.10;99110.31;12755831;23;19920;-80
2022/01/11 04:54:23;;;;;;;56.03;34.03;;;;;;;0.93;71.32;99122.81;12735842;23;20017;-80
2022/01/11 04:59:44;;;;;;;62.80;35.20;;;;;;;0.93;71.01;99122.81;12755594;23;20020;-80
2022/01/11 05:05:05;;;;;;;59.88;34.42;;;;;;;0.97;71.36;99126.84;12755411;23;20028;-80
2022/01/11 05:10:27;;;;;;;65.45;36.33;;;;;;;1.01;71.51;99132.84;12768649;23;20061;-80
2022/01/11 05:15:48;;;;;;;66.70;36.45;;;;;;;1.03;71.38;99141.34;12755387;23;20444;-80
2022/01/11 05:21:10;;;;;;;60.22;34.08;;;;;;;0.89;71.62;99141.56;12775746;23;20020;-80
2022/01/11 05:26:30;;;;;;;61.88;34.78;;;;;;;0.88;71.12;99143.56;12735617;23;20028;-80
2022/01/11 05:31:52;;;;;;;61.80;35.92;;;;;;;0.96;71.48;99146.56;12776496;23;20140;-80
2022/01/11 05:37:13;;;;;;;70.03;36.25;;;;;;;0.96;71.49;99161.06;12755849;23;20013;-80
2022/01/11 05:42:35;;;;;;;63.65;36.03;;;;;;;0.97;70.73;99159.84;12755917;23;20013;-80
2022/01/11 05:47:57;;;;;;;65.03;35.30;;;;;;;0.95;71.07;99167.81;12754831;23;20013;-80
2022/01/11 05:53:18;;;;;;;57.83;33.13;;;;;;;0.99;71.29;99176.59;12756081;23;20478;-80
2022/01/11 05:58:40;;;;;;;61.10;34.95;;;;;;;1.06;70.68;99180.84;12757720;23;20017;-80
2022/01/11 06:04:02;;;;;;;62.67;35.78;;;;;;;1.05;70.84;99188.34;12737705;23;20032;-80
2022/01/11 06:09:26;;;;;;;64.63;35.17;;;;;;;1.01;70.49;99192.59;12738222;23;20043;-80
2022/01/11 06:14:47;;;;;;;63.80;34.20;;;;;;;0.94;70.13;99199.31;12759225;23;20041;-80
2022/01/11 06:20:09;;;;;;;68.15;36.92;;;;;;;0.90;70.50;99203.56;12738682;23;20257;-80
2022/01/11 06:25:31;;;;;;;66.90;35.53;;;;;;;0.84;70.44;99209.75;12758704;23;20025;-80
2022/01/11 06:30:53;;;;;;;61.20;34.15;;;;;;;0.84;70.68;99223.50;12758385;23;20384;-80
2022/01/11 06:36:14;;;;;;;68.38;37.35;;;;;;;0.84;70.30;99223.50;12778274;23;20040;-79
2022/01/11 06:41:35;;;;;;;59.13;34.05;;;;;;;0.85;70.60;99247.00;12757662;23;20092;-80
2022/01/11 06:47:01;;;;;;;51.75;29.33;;;;;;;0.82;69.55;99244.50;12739507;23;20096;-80
2022/01/11 06:52:22;;;;;;;59.78;31.80;;;;;;;0.82;69.53;99248.00;12741051;23;20066;-80
2022/01/11 06:57:46;;;;;;;50.38;27.25;;;;;;;0.82;69.42;99253.50;12741455;23;20309;-80
2022/01/11 07:03:07;;;;;;;50.20;26.00;;;;;;;0.75;68.50;99270.44;12775992;23;20017;-80
2022/01/11 07:08:27;;;;;;;46.03;25.52;;;;;;;0.55;67.74;99256.84;12760289;23;20017;-80
2022/01/11 07:13:48;;;;;;;45.97;24.35;;;;;;;0.47;68.26;99267.53;12740634;23;20346;-80
2022/01/11 07:19:10;;;;;;;46.67;23.85;;;;;;;0.48;67.81;99276.50;12760801;23;20016;-79
2022/01/11 07:24:33;;;;;;;42.63;23.48;;;;;;;0.45;68.42;99291.25;12761434;23;20041;-80
2022/01/11 07:29:55;;;;;;;47.53;25.45;;;;;;;0.45;68.60;99292.00;12760936;23;20017;-80
2022/01/11 07:35:16;;;;;;;47.15;24.42;;;;;;;0.53;69.04;99314.28;12760660;23;20072;-80
2022/01/11 07:40:38;;;;;;;53.55;26.35;;;;;;;0.55;68.55;99320.78;12740098;23;20021;-80
2022/01/11 07:46:10;;;;;;;47.10;25.15;;;;;;;0.45;68.19;99316.72;12762762;23;20020;-76
2022/01/11 07:51:37;;;;;;;48.30;25.55;;;;;;;0.49;68.28;99333.00;12759018;23;20062;-76
2022/01/11 07:57:02;;;;;;;48.50;24.52;;;;;;;0.50;68.33;99332.50;12760117;23;20013;-76
2022/01/11 08:02:24;;;;;;;45.75;24.20;;;;;;;0.55;68.66;99333.78;12739323;23;20028;-77
2022/01/11 08:07:48;;;;;;;46.08;25.63;;;;;;;0.55;67.69;99336.53;12760334;23;20470;-76
2022/01/11 08:13:16;;;;;;;46.25;25.30;;;;;;;0.43;68.10;99356.91;12742305;23;20328;-76
2022/01/11 08:18:37;;;;;;;44.42;23.65;;;;;;;0.52;67.96;99367.72;12738876;23;20021;-76
2022/01/11 08:23:58;;;;;;;43.70;22.52;;;;;;;0.51;67.21;99382.72;12738251;23;20021;-76
2022/01/11 08:29:22;;;;;;;48.58;23.98;;;;;;;0.26;67.02;99384.22;12757660;23;20021;-76
2022/01/11 08:34:49;;;;;;;46.42;24.00;;;;;;;0.22;67.90;99386.44;12761829;23;20087;-76
2022/01/11 08:40:11;;;;;;;50.03;25.88;;;;;;;0.37;67.99;99392.56;12758734;23;20044;-76
2022/01/11 08:45:34;;;;;;;50.43;25.67;;;;;;;0.49;67.74;99385.19;12739813;23;20380;-76
2022/01/11 08:51:00;;;;;;;48.22;24.42;;;;;;;0.62;66.85;99402.03;12759393;23;20391;-76
2022/01/11 08:56:24;;;;;;;45.03;23.38;;;;;;;0.71;67.92;99401.13;12719551;23;20024;-76
2022/01/11 09:01:45;;;;;;;47.63;24.60;;;;;;;0.83;68.03;99405.44;12737540;23;20013;-76
2022/01/11 09:07:08;;;;;;;47.72;24.05;;;;;;;0.79;66.03;99413.94;12758015;23;20132;-76
2022/01/11 09:12:28;;;;;;;46.53;24.00;;;;;;;0.79;67.15;99413.94;12757822;23;20024;-76
2022/01/11 09:17:51;;;;;;;47.95;24.02;;;;;;;0.89;66.57;99419.25;12738089;23;20479;-76
2022/01/11 09:23:12;;;;;;;48.80;24.25;;;;;;;0.92;65.36;99426.53;12737817;23;20372;-76
2022/01/11 09:28:33;;;;;;;44.58;23.38;;;;;;;0.85;66.04;99416.72;12720892;23;20017;-78
2022/01/11 09:33:54;;;;;;;45.88;23.20;;;;;;;0.88;66.05;99423.25;12722320;23;20019;-78
2022/01/11 09:39:15;;;;;;;44.45;21.80;;;;;;;1.13;65.78;99403.91;12782309;23;20013;-75
2022/01/11 09:44:40;;;;;;;37.42;20.30;;;;;;;1.38;65.64;99405.06;12762159;23;20455;-76
2022/01/11 09:50:03;;;;;;;37.20;19.83;;;;;;;1.82;65.67;99412.00;12743845;23;20017;-75
2022/01/11 09:55:24;;;;;;;38.33;20.52;;;;;;;2.63;64.06;99404.19;12762243;23;20075;-75
2022/01/11 10:00:46;;;;;;;36.45;19.83;;;;;;;3.16;62.79;99405.88;12782133;23;20013;-76
2022/01/11 10:06:26;;;;;;;37.75;20.05;;;;;;;3.16;59.42;99401.13;12732370;23;20024;-76
2022/01/11 10:11:55;;;;;;;35.83;19.70;;;;;;;3.15;59.36;99401.63;12769284;23;20013;-76
2022/01/11 10:17:20;;;;;;;37.90;19.08;;;;;;;3.51;56.23;99397.03;12762330;23;20021;-76
2022/01/11 10:22:56;;;;;;;38.67;21.08;;;;;;;3.44;57.49;99390.00;12764756;23;20467;-78
2022/01/11 10:28:18;;;;;;;40.15;21.48;;;;;;;8.09;45.80;99397.50;12762741;23;20023;-79
2022/01/11 10:34:13;;;;;;;37.72;21.42;;;;;;;7.30;49.29;99401.06;12765360;23;20021;-78
2022/01/11 10:39:38;;;;;;;39.72;22.38;;;;;;;6.18;54.59;99397.34;12778879;23;20441;-77
2022/01/11 10:45:08;;;;;;;37.53;22.63;;;;;;;5.22;54.87;99411.53;12781683;23;20017;-77
2022/01/11 10:50:38;;;;;;;38.33;21.20;;;;;;;4.26;55.87;99414.28;12782232;23;20020;-79
2022/01/11 10:56:01;;;;;;;35.65;20.23;;;;;;;3.56;57.15;99415.56;12782404;23;20021;-77
2022/01/11 11:01:44;;;;;;;35.00;19.20;;;;;;;3.05;57.39;99419.69;12791558;23;20041;-80
2022/01/11 11:07:14;;;;;;;35.03;19.48;;;;;;;2.83;57.73;99423.22;12769216;23;20021;-80
2022/01/11 11:12:44;;;;;;;36.60;19.48;;;;;;;2.67;56.33;99424.72;12804053;23;20017;-81
2022/01/11 11:18:24;;;;;;;34.13;17.88;;;;;;;2.69;58.16;99429.72;12810583;23;20044;-82
2022/01/11 11:23:45;;;;;;;36.42;18.48;;;;;;;2.79;57.74;99433.75;12837363;23;20005;-82
2022/01/11 11:29:11;;;;;;;32.85;16.75;;;;;;;3.17;56.73;99435.75;12631139;23;20112;-81
2022/01/11 11:34:53;;;;;;;30.20;17.40;;;;;;;3.05;56.18;99441.78;12622608;23;20022;-84
2022/01/11 11:40:22;;;;;;;33.05;17.98;;;;;;;3.28;56.50;99434.22;12615534;23;20062;-83
2022/01/11 11:45:44;;;;;;;32.83;16.73;;;;;;;3.44;54.41;99434.19;12633512;23;20026;-80
2022/01/11 11:51:07;;;;;;;35.42;19.45;;;;;;;3.88;53.50;99426.28;12693516;23;19998;-84
2022/01/11 11:56:29;;;;;;;30.88;17.20;;;;;;;3.94;53.78;99427.00;12632429;23;20448;-83
2022/01/11 12:01:50;;;;;;;33.22;18.80;;;;;;;4.07;53.00;99418.91;12611903;23;20037;-83
2022/01/11 12:07:35;;;;;;;32.65;18.55;;;;;;;3.89;53.41;99425.78;12632068;23;20037;-82
2022/01/11 12:12:56;;;;;;;35.43;18.70;;;;;;;3.85;52.54;99414.22;12652337;23;20014;-82
2022/01/11 12:18:17;;;;;;;34.20;17.63;;;;;;;3.71;53.40;99409.75;12671938;23;20258;-82
2022/01/11 12:23:38;;;;;;;33.67;17.88;;;;;;;3.82;53.77;99420.03;12651498;23;20046;-81
2022/01/11 12:29:02;;;;;;;34.35;17.90;;;;;;;4.05;53.61;99421.41;12672864;23;20053;-84
2022/01/11 12:34:45;;;;;;;32.15;17.60;;;;;;;4.08;52.83;99416.91;12673008;23;20022;-84
2022/01/11 12:40:35;;;;;;;32.35;18.27;;;;;;;3.68;51.94;99419.06;12650489;23;20037;-84
2022/01/11 12:46:09;;;;;;;38.05;19.92;;;;;;;3.35;52.65;99406.09;12629115;23;20019;-82
2022/01/11 12:51:35;;;;;;;33.50;17.97;;;;;;;2.96;52.90;99409.69;12608971;23;20018;-82
2022/01/11 12:56:57;;;;;;;32.60;18.23;;;;;;;3.15;54.05;99410.66;12645894;23;20097;-82
2022/01/11 13:02:24;;;;;;;37.17;19.88;;;;;;;3.31;51.83;99408.38;12592374;23;20025;-81
2022/01/11 13:07:50;;;;;;;36.17;19.90;;;;;;;3.49;52.76;99410.59;12596851;23;20022;-78
2022/01/11 13:13:15;;;;;;;38.47;20.17;;;;;;;3.28;52.63;99406.63;12576386;23;20034;-79
2022/01/11 13:18:36;;;;;;;37.50;18.95;;;;;;;3.16;53.46;99398.38;12595256;23;20030;-78
2022/01/11 13:29:41;;;;;;;38.97;21.63;;;;;;;2.69;52.79;99400.16;12597172;23;20034;-78
2022/01/11 13:35:11;;;;;;;39.72;20.88;;;;;;;2.57;53.29;99401.41;12616072;23;20018;-78
2022/01/11 13:40:32;;;;;;;39.53;20.70;;;;;;;2.35;53.80;99413.16;12596607;23;20018;-79
2022/01/11 13:45:54;;;;;;;37.72;20.02;;;;;;;2.38;53.63;99405.91;12596627;23;20433;-79
2022/01/11 13:51:15;;;;;;;39.20;20.02;;;;;;;2.50;53.75;99408.16;12617335;23;20132;-78
2022/01/11 13:56:40;;;;;;;44.08;22.30;;;;;;;2.54;54.07;99407.94;12595589;23;20086;-79
2022/01/11 14:02:07;;;;;;;37.15;21.25;;;;;;;2.32;53.26;99416.94;12596250;23;20352;-78
2022/01/11 14:07:29;;;;;;;41.38;22.60;;;;;;;2.03;53.61;99404.34;12635703;23;20128;-78
2022/01/11 14:12:54;;;;;;;39.20;21.75;;;;;;;1.75;53.96;99411.75;12618150;23;20022;-78
2022/01/11 14:18:16;;;;;;;38.55;21.52;;;;;;;1.70;54.10;99422.22;12600459;23;20018;-78
2022/01/11 14:23:37;;;;;;;39.08;22.42;;;;;;;1.59;53.57;99415.94;12599091;23;20018;-77
2022/01/11 14:28:58;;;;;;;42.45;21.20;;;;;;;1.47;54.09;99417.88;12579530;23;20022;-78
2022/01/11 14:34:18;;;;;;;46.05;25.05;;;;;;;1.32;54.53;99420.03;12598857;23;20029;-77
2022/01/11 14:39:39;;;;;;;44.08;24.10;;;;;;;1.31;55.12;99424.03;12598584;23;20149;-79
2022/01/11 14:45:12;;;;;;;45.75;23.58;;;;;;;1.39;55.07;99425.84;12578674;23;20076;-80
2022/01/11 14:50:33;;;;;;;46.58;25.50;;;;;;;1.38;55.34;99429.09;12579016;23;20018;-80
2022/01/11 14:55:54;;;;;;;46.70;25.27;;;;;;;1.31;55.38;99444.03;12598262;23;20445;-80
2022/01/11 15:01:18;;;;;;;49.30;26.80;;;;;;;1.18;55.40;99438.22;12597978;23;20330;-80
2022/01/11 15:06:41;;;;;;;44.75;24.27;;;;;;;1.07;55.06;99432.63;12578593;23;20046;-80
2022/01/11 15:12:19;;;;;;;49.15;24.90;;;;;;;1.08;55.66;99439.66;12597980;23;20342;-80
2022/01/11 15:17:41;;;;;;;50.63;25.55;;;;;;;1.14;55.57;99437.66;12597589;23;20069;-79
2022/01/11 15:23:02;;;;;;;50.30;26.30;;;;;;;1.18;55.17;99438.22;12617733;23;20014;-79
2022/01/11 15:28:23;;;;;;;48.55;25.60;;;;;;;1.17;55.05;99446.97;12600321;23;20049;-80
2022/01/11 15:33:44;;;;;;;48.08;26.00;;;;;;;1.16;55.34;99446.22;12598617;23;20022;-80
2022/01/11 15:39:08;;;;;;;45.35;25.13;;;;;;;1.13;56.02;99449.91;12593627;23;20019;-79
2022/01/11 15:44:29;;;;;;;47.13;25.15;;;;;;;1.12;55.67;99453.91;12597852;23;20065;-80
2022/01/11 15:49:50;;;;;;;47.97;25.90;;;;;;;1.13;55.66;99447.91;12597154;23;20018;-81
2022/01/11 15:55:13;;;;;;;52.95;27.23;;;;;;;1.08;56.14;99450.66;12601103;23;20100;-78
2022/01/11 16:00:35;;;;;;;49.58;25.58;;;;;;;1.08;56.22;99447.91;12598612;23;20018;-78
2022/01/11 16:05:56;;;;;;;53.80;25.77;;;;;;;0.94;56.32;99446.03;12596883;23;20101;-78
2022/01/11 16:11:18;;;;;;;45.25;24.73;;;;;;;0.88;56.67;99446.00;12596958;23;20030;-76
2022/01/11 16:16:39;;;;;;;49.42;26.67;;;;;;;0.77;56.99;99449.41;12597060;23;20500;-76
2022/01/11 16:22:01;;;;;;;47.75;25.98;;;;;;;0.84;57.12;99457.19;12621572;23;20023;-82
2022/01/11 16:27:23;;;;;;;47.85;26.25;;;;;;;0.90;56.22;99457.25;12596948;23;20033;-81
2022/01/11 16:32:44;;;;;;;47.08;24.75;;;;;;;0.85;56.53;99466.94;12601104;23;20022;-79
2022/01/11 16:38:08;;;;;;;46.50;24.60;;;;;;;0.73;56.16;99475.59;12613126;23;20066;-80
2022/01/11 16:43:30;;;;;;;47.85;24.95;;;;;;;0.69;56.44;99478.56;12621116;23;20027;-80
2022/01/11 16:48:52;;;;;;;44.97;25.35;;;;;;;0.63;56.76;99469.50;12614650;23;20030;-82
2022/01/11 16:54:13;;;;;;;47.58;25.15;;;;;;;0.57;57.02;99465.94;12649037;23;20018;-81
2022/01/11 16:59:36;;;;;;;51.03;26.20;;;;;;;0.42;56.66;99473.56;12669293;23;20006;-80
2022/01/11 17:04:57;;;;;;;45.78;24.95;;;;;;;0.37;57.27;99476.97;12647887;23;20033;-80
2022/01/11 17:10:19;;;;;;;44.67;22.85;;;;;;;0.32;57.39;99489.44;12620010;23;20023;-82
2022/01/11 17:15:40;;;;;;;54.03;26.52;;;;;;;0.34;57.47;99502.69;12629166;23;20014;-74
2022/01/11 17:21:01;;;;;;;52.00;27.20;;;;;;;0.38;57.44;99503.97;12595529;23;20349;-74
2022/01/11 17:26:22;;;;;;;52.63;26.02;;;;;;;0.42;57.25;99512.00;12607015;23;20045;-74
2022/01/11 17:31:48;;;;;;;47.83;24.42;;;;;;;0.42;57.21;99506.53;12595097;23;20018;-74
2022/01/11 17:37:09;;;;;;;46.67;24.70;;;;;;;0.43;57.72;99502.53;12596565;23;20393;-74
2022/01/11 17:42:30;;;;;;;43.35;24.55;;;;;;;0.39;57.44;99508.25;12612586;23;20021;-74
2022/01/11 17:47:51;;;;;;;47.67;24.83;;;;;;;0.42;57.53;99523.00;12617357;23;20014;-74
2022/01/11 17:53:12;;;;;;;44.70;23.77;;;;;;;0.33;57.63;99517.66;12598946;23;20022;-74
2022/01/11 17:58:33;;;;;;;46.63;26.08;;;;;;;0.24;57.08;99521.31;12559407;23;20442;-74
2022/01/11 18:03:54;;;;;;;48.40;25.58;;;;;;;0.11;57.49;99527.16;12611750;23;20046;-74
2022/01/11 18:09:16;;;;;;;50.67;25.42;;;;;;;-0.02;57.91;99537.69;12579075;23;20046;-76
2022/01/11 18:14:37;;;;;;;46.08;24.98;;;;;;;0.03;58.50;99550.00;12623721;23;20022;-80
2022/01/11 18:19:58;;;;;;;47.80;25.30;;;;;;;0.15;58.24;99570.88;12645037;23;20015;-81
2022/01/11 18:25:23;;;;;;;51.65;26.13;;;;;;;0.24;58.24;99566.00;12628368;23;20030;-81
2022/01/11 18:30:45;;;;;;;49.63;26.67;;;;;;;0.31;57.91;99566.84;12616578;23;20025;-77
2022/01/11 18:36:06;;;;;;;51.80;25.42;;;;;;;0.39;57.85;99562.44;12573138;23;20026;-79
2022/01/11 18:41:29;;;;;;;50.08;26.40;;;;;;;0.31;58.07;99556.59;12579367;23;20023;-78
2022/01/11 18:46:51;;;;;;;48.38;25.58;;;;;;;0.26;58.17;99566.28;12605898;23;20022;-79
2022/01/11 18:52:12;;;;;;;42.88;22.70;;;;;;;0.31;57.92;99575.06;12621858;23;20026;-77
2022/01/11 18:57:32;;;;;;;45.38;25.30;;;;;;;0.31;57.79;99583.31;12618537;23;20041;-77
2022/01/11 19:02:53;;;;;;;46.42;24.67;;;;;;;0.37;57.78;99581.38;12598505;23;20030;-77
2022/01/11 19:08:15;;;;;;;45.72;24.48;;;;;;;0.37;58.05;99586.88;12578485;23;20046;-77
2022/01/11 19:13:36;;;;;;;48.10;24.05;;;;;;;0.42;57.89;99605.44;12618424;23;20034;-77
2022/01/11 19:18:57;;;;;;;41.03;22.35;;;;;;;0.43;57.69;99602.19;12578140;23;20097;-77
2022/01/11 19:24:18;;;;;;;44.85;23.80;;;;;;;0.39;57.80;99600.91;12596487;23;20018;-78
2022/01/11 19:29:48;;;;;;;43.65;23.00;;;;;;;0.35;57.68;99605.84;12597130;23;20029;-77
2022/01/11 19:35:09;;;;;;;44.50;23.63;;;;;;;0.28;57.80;99593.25;12557108;23;20022;-78
2022/01/11 19:40:33;;;;;;;43.95;23.88;;;;;;;0.20;57.78;99605.91;12577384;23;20341;-77
2022/01/11 19:45:55;;;;;;;42.88;23.98;;;;;;;0.09;58.03;99592.00;12617472;23;20445;-76
2022/01/11 19:51:16;;;;;;;43.55;22.92;;;;;;;-0.11;57.93;99581.75;12597586;23;20025;-76
2022/01/11 19:56:38;;;;;;;47.67;24.08;;;;;;;-0.19;58.13;99586.13;12636773;23;20030;-75
2022/01/11 20:01:58;;;;;;;48.88;26.02;;;;;;;-0.19;58.48;99589.66;12577083;23;20029;-76
2022/01/11 20:07:20;;;;;;;44.72;23.33;;;;;;;-0.24;58.48;99590.31;12577171;23;20049;-75
2022/01/11 20:12:41;;;;;;;45.30;25.08;;;;;;;-0.38;58.80;99574.63;12576713;23;20022;-75
2022/01/11 20:18:04;;;;;;;44.30;23.20;;;;;;;-0.49;58.39;99579.94;12616812;23;20021;-76
2022/01/11 20:29:04;;;;;;;45.08;24.63;;;;;;;-0.82;59.18;99585.63;12580293;23;20405;-75
2022/01/11 20:34:26;;;;;;;43.03;22.25;;;;;;;-1.01;59.09;99580.34;12595620;23;20022;-75
2022/01/11 20:39:50;;;;;;;47.38;24.23;;;;;;;-1.10;59.49;99576.94;12595845;23;20014;-76
2022/01/11 20:45:11;;;;;;;47.42;25.08;;;;;;;-1.18;59.46;99588.25;12596150;23;20335;-74
2022/01/11 20:50:37;;;;;;;50.25;24.48;;;;;;;-1.26;59.57;99589.09;12576200;23;20026;-75
2022/01/11 20:56:00;;;;;;;51.38;25.70;;;;;;;-1.34;59.68;99596.94;12576990;23;20098;-75
2022/01/11 21:01:21;;;;;;;47.25;23.75;;;;;;;-1.41;60.03;99604.75;12576464;23;20514;-75
2022/01/11 21:06:43;;;;;;;48.22;25.02;;;;;;;-1.51;60.30;99599.34;12577570;23;20484;-75
2022/01/11 21:12:05;;;;;;;47.28;24.85;;;;;;;-1.54;59.99;99600.28;12577143;23;20446;-78
2022/01/11 21:23:20;;;;;;;49.70;23.95;;;;;;;-1.27;60.34;99601.28;12565038;23;20045;-76
2022/01/11 21:28:41;;;;;;;51.42;24.63;;;;;;;-1.22;60.32;99604.13;12594138;23;20094;-76
2022/01/11 21:34:02;;;;;;;44.33;23.33;;;;;;;-1.16;60.49;99601.47;12573745;23;20042;-76
2022/01/11 21:39:23;;;;;;;49.10;23.38;;;;;;;-1.14;60.35;99599.03;12614849;23;20445;-76
2022/01/11 21:44:44;;;;;;;46.90;23.70;;;;;;;-1.22;60.62;99612.34;12592819;23;20022;-76
2022/01/11 21:50:06;;;;;;;45.75;24.02;;;;;;;-1.13;60.77;99606.03;12591606;23;20022;-76
2022/01/11 21:55:30;;;;;;;49.42;26.90;;;;;;;-1.02;60.65;99605.47;12612504;23;20022;-76
2022/01/11 22:00:51;;;;;;;41.90;22.70;;;;;;;-1.00;60.43;99603.78;12590410;23;20122;-76
2022/01/11 22:06:12;;;;;;;52.75;26.58;;;;;;;-1.07;60.06;99604.13;12596092;23;20079;-76
2022/01/11 22:11:33;;;;;;;45.95;25.77;;;;;;;-1.14;60.50;99607.28;12593315;23;20030;-76
2022/01/11 22:17:42;;;;;;;55.55;28.13;;;;;;;-1.22;60.48;99609.63;12592538;23;20489;-76
2022/01/11 22:22:50;;;;;;;49.65;25.13;;;;;;;-1.21;60.71;99597.41;12611874;23;20093;-76
2022/01/11 22:28:11;;;;;;;46.03;23.75;;;;;;;-1.20;60.95;99620.09;12611498;23;20019;-78
2022/01/11 22:33:32;;;;;;;48.85;23.70;;;;;;;-1.13;60.50;99619.75;12573944;23;20445;-78
2022/01/11 22:38:53;;;;;;;46.85;23.30;;;;;;;-1.18;60.52;99617.63;12595033;23;20014;-78
2022/01/11 22:44:14;;;;;;;40.05;20.77;;;;;;;-1.21;60.94;99608.38;12594387;23;20014;-78
2022/01/11 22:49:35;;;;;;;46.42;22.88;;;;;;;-1.27;61.15;99601.28;12573453;23;20377;-78
2022/01/11 22:54:56;;;;;;;45.25;23.17;;;;;;;-1.26;60.63;99594.56;12571735;23;20027;-78
2022/01/11 23:00:17;;;;;;;44.95;22.40;;;;;;;-1.29;61.20;99599.00;12611454;23;20089;-78
2022/01/11 23:05:38;;;;;;;42.88;21.38;;;;;;;-1.23;60.98;99608.09;12577313;23;20022;-78
2022/01/11 23:11:01;;;;;;;39.95;20.52;;;;;;;-1.07;61.19;99615.09;12577192;23;20048;-78
2022/01/11 23:16:22;;;;;;;40.63;20.08;;;;;;;-0.87;60.63;99612.50;12597529;23;20077;-77
2022/01/11 23:21:43;;;;;;;39.95;19.65;;;;;;;-0.76;60.84;99616.66;12557833;23;20025;-77
2022/01/11 23:27:04;;;;;;;38.30;19.27;;;;;;;-0.67;60.65;99613.84;12598094;23;20098;-78
2022/01/11 23:32:26;;;;;;;37.50;18.65;;;;;;;-0.67;60.59;99616.56;12576858;23;20089;-78
2022/01/11 23:37:55;;;;;;;33.42;17.55;;;;;;;-0.66;60.03;99607.13;12617203;23;20019;-77
2022/01/11 23:43:36;;;;;;;37.97;18.00;;;;;;;-0.77;60.18;99604.94;12597574;23;20024;-78
2022/01/11 23:48:57;;;;;;;31.85;17.40;;;;;;;-0.79;60.31;99612.09;12597051;23;20022;-78
2022/01/11 23:54:18;;;;;;;32.22;17.75;;;;;;;-0.76;60.39;99614.69;12636765;23;20074;-78
2022/01/11 23:59:39;;;;;;;26.88;14.20;;;;;;;-0.71;60.28;99613.25;12616450;23;20026;-78
